sensor_id;sensor_type;location;lat;lon;timestamp;P1;durP1;ratioP1;P2;durP2;ratioP2
47715;SDS011;33476;50.984;3.538;2024-03-08T00:01:47;18.65;;;9.98;;
47715;SDS011;33476;50.984;3.538;2024-03-08T00:04:12;16.55;;;9.48;;
47715;SDS011;33476;50.984;3.538;2024-03-08T00:06:38;21.73;;;10.05;;
47715;SDS011;33476;50.984;3.538;2024-03-08T00:09:04;18.58;;;9.32;;
47715;SDS011;33476;50.984;3.538;2024-03-08T00:11:32;18.17;;;9.85;;
47715;SDS011;33476;50.984;3.538;2024-03-08T00:13:58;20.67;;;10.48;;
47715;SDS011;33476;50.984;3.538;2024-03-08T00:16:24;18.55;;;9.90;;
47715;SDS011;33476;50.984;3.538;2024-03-08T00:18:49;20.05;;;10.27;;
47715;SDS011;33476;50.984;3.538;2024-03-08T00:21:15;21.10;;;11.13;;
47715;SDS011;33476;50.984;3.538;2024-03-08T00:23:40;18.52;;;10.52;;
47715;SDS011;33476;50.984;3.538;2024-03-08T00:26:06;19.67;;;9.95;;
47715;SDS011;33476;50.984;3.538;2024-03-08T00:28:32;20.17;;;10.15;;
47715;SDS011;33476;50.984;3.538;2024-03-08T00:30:59;16.40;;;9.32;;
47715;SDS011;33476;50.984;3.538;2024-03-08T00:33:25;21.52;;;10.52;;
47715;SDS011;33476;50.984;3.538;2024-03-08T00:35:50;20.17;;;10.30;;
47715;SDS011;33476;50.984;3.538;2024-03-08T00:38:16;19.08;;;9.70;;
47715;SDS011;33476;50.984;3.538;2024-03-08T00:40:41;19.50;;;10.13;;
47715;SDS011;33476;50.984;3.538;2024-03-08T00:43:07;19.20;;;9.13;;
47715;SDS011;33476;50.984;3.538;2024-03-08T00:45:32;22.83;;;10.32;;
47715;SDS011;33476;50.984;3.538;2024-03-08T00:47:57;22.05;;;10.00;;
47715;SDS011;33476;50.984;3.538;2024-03-08T00:50:23;16.20;;;9.30;;
47715;SDS011;33476;50.984;3.538;2024-03-08T00:52:48;19.45;;;9.10;;
47715;SDS011;33476;50.984;3.538;2024-03-08T00:55:13;20.02;;;9.88;;
47715;SDS011;33476;50.984;3.538;2024-03-08T00:57:39;20.05;;;9.93;;
47715;SDS011;33476;50.984;3.538;2024-03-08T01:00:06;21.55;;;10.27;;
47715;SDS011;33476;50.984;3.538;2024-03-08T01:02:37;18.42;;;9.57;;
47715;SDS011;33476;50.984;3.538;2024-03-08T01:05:03;18.80;;;9.85;;
47715;SDS011;33476;50.984;3.538;2024-03-08T01:07:32;18.92;;;9.43;;
47715;SDS011;33476;50.984;3.538;2024-03-08T01:09:58;20.58;;;9.95;;
47715;SDS011;33476;50.984;3.538;2024-03-08T01:12:24;21.40;;;10.52;;
47715;SDS011;33476;50.984;3.538;2024-03-08T01:14:49;22.08;;;10.48;;
47715;SDS011;33476;50.984;3.538;2024-03-08T01:17:15;20.52;;;10.13;;
47715;SDS011;33476;50.984;3.538;2024-03-08T01:19:40;18.50;;;10.23;;
47715;SDS011;33476;50.984;3.538;2024-03-08T01:22:05;21.15;;;10.90;;
47715;SDS011;33476;50.984;3.538;2024-03-08T01:24:31;21.05;;;10.25;;
47715;SDS011;33476;50.984;3.538;2024-03-08T01:26:56;22.58;;;11.15;;
47715;SDS011;33476;50.984;3.538;2024-03-08T01:29:21;23.02;;;10.93;;
47715;SDS011;33476;50.984;3.538;2024-03-08T01:31:47;25.25;;;12.13;;
47715;SDS011;33476;50.984;3.538;2024-03-08T01:34:12;22.98;;;10.50;;
47715;SDS011;33476;50.984;3.538;2024-03-08T01:36:38;23.15;;;11.48;;
47715;SDS011;33476;50.984;3.538;2024-03-08T01:39:03;24.60;;;11.18;;
47715;SDS011;33476;50.984;3.538;2024-03-08T01:41:33;24.90;;;10.95;;
47715;SDS011;33476;50.984;3.538;2024-03-08T01:43:59;23.27;;;11.43;;
47715;SDS011;33476;50.984;3.538;2024-03-08T01:46:24;28.60;;;12.82;;
47715;SDS011;33476;50.984;3.538;2024-03-08T01:48:50;24.33;;;11.50;;
47715;SDS011;33476;50.984;3.538;2024-03-08T01:51:18;29.00;;;12.48;;
47715;SDS011;33476;50.984;3.538;2024-03-08T01:53:44;23.90;;;12.60;;
47715;SDS011;33476;50.984;3.538;2024-03-08T01:56:11;25.85;;;12.45;;
47715;SDS011;33476;50.984;3.538;2024-03-08T01:58:38;29.02;;;12.75;;
47715;SDS011;33476;50.984;3.538;2024-03-08T02:01:07;26.98;;;12.52;;
47715;SDS011;33476;50.984;3.538;2024-03-08T02:03:34;25.58;;;12.80;;
47715;SDS011;33476;50.984;3.538;2024-03-08T02:05:59;32.70;;;13.30;;
47715;SDS011;33476;50.984;3.538;2024-03-08T02:08:24;27.75;;;12.65;;
47715;SDS011;33476;50.984;3.538;2024-03-08T02:10:50;28.35;;;13.55;;
47715;SDS011;33476;50.984;3.538;2024-03-08T02:13:16;31.38;;;14.18;;
47715;SDS011;33476;50.984;3.538;2024-03-08T02:15:51;28.88;;;13.57;;
47715;SDS011;33476;50.984;3.538;2024-03-08T02:18:20;28.85;;;13.20;;
47715;SDS011;33476;50.984;3.538;2024-03-08T02:20:50;35.50;;;14.63;;
47715;SDS011;33476;50.984;3.538;2024-03-08T02:23:20;28.38;;;13.52;;
47715;SDS011;33476;50.984;3.538;2024-03-08T02:25:46;30.77;;;14.10;;
47715;SDS011;33476;50.984;3.538;2024-03-08T02:28:12;29.27;;;13.50;;
47715;SDS011;33476;50.984;3.538;2024-03-08T02:30:39;29.55;;;13.23;;
47715;SDS011;33476;50.984;3.538;2024-03-08T02:33:04;26.80;;;13.63;;
47715;SDS011;33476;50.984;3.538;2024-03-08T02:35:31;33.72;;;13.60;;
47715;SDS011;33476;50.984;3.538;2024-03-08T02:37:57;30.45;;;14.30;;
47715;SDS011;33476;50.984;3.538;2024-03-08T02:40:23;28.92;;;14.05;;
47715;SDS011;33476;50.984;3.538;2024-03-08T02:42:48;26.75;;;13.80;;
47715;SDS011;33476;50.984;3.538;2024-03-08T02:45:14;32.63;;;15.30;;
47715;SDS011;33476;50.984;3.538;2024-03-08T02:47:39;32.60;;;14.43;;
47715;SDS011;33476;50.984;3.538;2024-03-08T02:50:05;28.75;;;13.38;;
47715;SDS011;33476;50.984;3.538;2024-03-08T02:52:33;28.10;;;15.07;;
47715;SDS011;33476;50.984;3.538;2024-03-08T02:54:58;29.08;;;13.52;;
47715;SDS011;33476;50.984;3.538;2024-03-08T02:57:24;29.23;;;13.50;;
47715;SDS011;33476;50.984;3.538;2024-03-08T02:59:49;26.48;;;13.50;;
47715;SDS011;33476;50.984;3.538;2024-03-08T03:02:15;30.25;;;14.82;;
47715;SDS011;33476;50.984;3.538;2024-03-08T03:04:41;29.83;;;15.30;;
47715;SDS011;33476;50.984;3.538;2024-03-08T03:07:07;28.42;;;14.10;;
47715;SDS011;33476;50.984;3.538;2024-03-08T03:09:32;29.80;;;14.15;;
47715;SDS011;33476;50.984;3.538;2024-03-08T03:11:58;29.13;;;14.55;;
47715;SDS011;33476;50.984;3.538;2024-03-08T03:14:24;29.63;;;14.57;;
47715;SDS011;33476;50.984;3.538;2024-03-08T03:16:51;30.95;;;14.80;;
47715;SDS011;33476;50.984;3.538;2024-03-08T03:19:17;30.00;;;14.80;;
47715;SDS011;33476;50.984;3.538;2024-03-08T03:21:42;31.40;;;15.15;;
47715;SDS011;33476;50.984;3.538;2024-03-08T03:24:08;29.13;;;14.57;;
47715;SDS011;33476;50.984;3.538;2024-03-08T03:26:37;30.83;;;14.13;;
47715;SDS011;33476;50.984;3.538;2024-03-08T03:29:06;27.55;;;14.13;;
47715;SDS011;33476;50.984;3.538;2024-03-08T03:31:33;29.45;;;14.02;;
47715;SDS011;33476;50.984;3.538;2024-03-08T03:33:59;29.13;;;14.13;;
47715;SDS011;33476;50.984;3.538;2024-03-08T03:36:27;30.05;;;14.98;;
47715;SDS011;33476;50.984;3.538;2024-03-08T03:38:53;27.35;;;14.95;;
47715;SDS011;33476;50.984;3.538;2024-03-08T03:41:30;27.75;;;13.95;;
47715;SDS011;33476;50.984;3.538;2024-03-08T03:43:55;30.05;;;15.15;;
47715;SDS011;33476;50.984;3.538;2024-03-08T03:46:21;27.10;;;14.55;;
47715;SDS011;33476;50.984;3.538;2024-03-08T03:48:46;30.65;;;14.55;;
47715;SDS011;33476;50.984;3.538;2024-03-08T03:51:11;30.63;;;14.90;;
47715;SDS011;33476;50.984;3.538;2024-03-08T03:53:37;27.75;;;14.68;;
47715;SDS011;33476;50.984;3.538;2024-03-08T03:56:03;28.85;;;14.07;;
47715;SDS011;33476;50.984;3.538;2024-03-08T03:58:31;27.30;;;13.90;;
47715;SDS011;33476;50.984;3.538;2024-03-08T04:00:57;26.90;;;14.10;;
47715;SDS011;33476;50.984;3.538;2024-03-08T04:03:23;28.48;;;15.27;;
47715;SDS011;33476;50.984;3.538;2024-03-08T04:05:48;30.67;;;14.02;;
47715;SDS011;33476;50.984;3.538;2024-03-08T04:08:14;28.45;;;14.57;;
47715;SDS011;33476;50.984;3.538;2024-03-08T04:10:39;26.88;;;14.95;;
47715;SDS011;33476;50.984;3.538;2024-03-08T04:13:07;28.10;;;14.70;;
47715;SDS011;33476;50.984;3.538;2024-03-08T04:15:34;30.73;;;15.65;;
47715;SDS011;33476;50.984;3.538;2024-03-08T04:18:00;28.95;;;14.65;;
47715;SDS011;33476;50.984;3.538;2024-03-08T04:20:25;26.95;;;14.48;;
47715;SDS011;33476;50.984;3.538;2024-03-08T04:22:51;26.05;;;13.57;;
47715;SDS011;33476;50.984;3.538;2024-03-08T04:25:16;28.20;;;14.43;;
47715;SDS011;33476;50.984;3.538;2024-03-08T04:27:41;30.33;;;15.43;;
47715;SDS011;33476;50.984;3.538;2024-03-08T04:30:07;30.00;;;14.88;;
47715;SDS011;33476;50.984;3.538;2024-03-08T04:32:33;27.83;;;14.57;;
47715;SDS011;33476;50.984;3.538;2024-03-08T04:34:59;28.15;;;14.80;;
47715;SDS011;33476;50.984;3.538;2024-03-08T04:37:26;28.30;;;15.18;;
47715;SDS011;33476;50.984;3.538;2024-03-08T04:39:54;26.85;;;14.18;;
47715;SDS011;33476;50.984;3.538;2024-03-08T04:42:20;27.65;;;15.07;;
47715;SDS011;33476;50.984;3.538;2024-03-08T04:44:45;31.15;;;15.18;;
47715;SDS011;33476;50.984;3.538;2024-03-08T04:47:11;26.35;;;15.13;;
47715;SDS011;33476;50.984;3.538;2024-03-08T04:49:36;28.20;;;14.20;;
47715;SDS011;33476;50.984;3.538;2024-03-08T04:52:04;27.25;;;14.40;;
47715;SDS011;33476;50.984;3.538;2024-03-08T04:54:30;29.92;;;15.30;;
47715;SDS011;33476;50.984;3.538;2024-03-08T04:56:56;28.73;;;15.48;;
47715;SDS011;33476;50.984;3.538;2024-03-08T04:59:22;28.70;;;15.32;;
47715;SDS011;33476;50.984;3.538;2024-03-08T05:01:47;29.75;;;15.32;;
47715;SDS011;33476;50.984;3.538;2024-03-08T05:04:13;26.75;;;14.77;;
47715;SDS011;33476;50.984;3.538;2024-03-08T05:06:39;26.77;;;14.00;;
47715;SDS011;33476;50.984;3.538;2024-03-08T05:09:04;27.40;;;15.13;;
47715;SDS011;33476;50.984;3.538;2024-03-08T05:11:42;27.33;;;15.07;;
47715;SDS011;33476;50.984;3.538;2024-03-08T05:14:08;26.77;;;14.57;;
47715;SDS011;33476;50.984;3.538;2024-03-08T05:16:34;27.52;;;14.82;;
47715;SDS011;33476;50.984;3.538;2024-03-08T05:19:00;29.58;;;15.63;;
47715;SDS011;33476;50.984;3.538;2024-03-08T05:21:25;29.83;;;14.95;;
47715;SDS011;33476;50.984;3.538;2024-03-08T05:23:51;28.70;;;15.05;;
47715;SDS011;33476;50.984;3.538;2024-03-08T05:26:16;25.63;;;15.13;;
47715;SDS011;33476;50.984;3.538;2024-03-08T05:28:42;25.70;;;14.48;;
47715;SDS011;33476;50.984;3.538;2024-03-08T05:31:07;30.00;;;15.30;;
47715;SDS011;33476;50.984;3.538;2024-03-08T05:33:33;25.90;;;14.77;;
47715;SDS011;33476;50.984;3.538;2024-03-08T05:36:02;26.20;;;15.38;;
47715;SDS011;33476;50.984;3.538;2024-03-08T05:38:27;29.63;;;15.73;;
47715;SDS011;33476;50.984;3.538;2024-03-08T05:40:53;26.15;;;14.35;;
47715;SDS011;33476;50.984;3.538;2024-03-08T05:43:19;26.13;;;14.82;;
47715;SDS011;33476;50.984;3.538;2024-03-08T05:45:45;27.52;;;15.60;;
47715;SDS011;33476;50.984;3.538;2024-03-08T05:48:11;31.13;;;15.02;;
47715;SDS011;33476;50.984;3.538;2024-03-08T05:50:39;28.90;;;15.38;;
47715;SDS011;33476;50.984;3.538;2024-03-08T05:53:04;27.40;;;15.52;;
47715;SDS011;33476;50.984;3.538;2024-03-08T05:55:32;29.40;;;16.42;;
47715;SDS011;33476;50.984;3.538;2024-03-08T05:58:00;30.05;;;15.18;;
47715;SDS011;33476;50.984;3.538;2024-03-08T06:00:26;26.95;;;16.25;;
47715;SDS011;33476;50.984;3.538;2024-03-08T06:02:52;28.95;;;15.27;;
47715;SDS011;33476;50.984;3.538;2024-03-08T06:05:17;28.10;;;15.82;;
47715;SDS011;33476;50.984;3.538;2024-03-08T06:07:43;26.85;;;14.88;;
47715;SDS011;33476;50.984;3.538;2024-03-08T06:10:08;26.58;;;14.65;;
47715;SDS011;33476;50.984;3.538;2024-03-08T06:12:35;26.35;;;15.57;;
47715;SDS011;33476;50.984;3.538;2024-03-08T06:15:05;27.77;;;15.43;;
47715;SDS011;33476;50.984;3.538;2024-03-08T06:17:31;30.83;;;16.40;;
47715;SDS011;33476;50.984;3.538;2024-03-08T06:19:57;29.20;;;15.93;;
47715;SDS011;33476;50.984;3.538;2024-03-08T06:22:22;26.35;;;15.00;;
47715;SDS011;33476;50.984;3.538;2024-03-08T06:24:47;29.05;;;15.73;;
47715;SDS011;33476;50.984;3.538;2024-03-08T06:27:13;25.88;;;15.10;;
47715;SDS011;33476;50.984;3.538;2024-03-08T06:29:39;29.13;;;15.02;;
47715;SDS011;33476;50.984;3.538;2024-03-08T06:32:04;29.38;;;15.27;;
47715;SDS011;33476;50.984;3.538;2024-03-08T06:34:32;26.55;;;14.60;;
47715;SDS011;33476;50.984;3.538;2024-03-08T06:36:59;27.15;;;15.20;;
47715;SDS011;33476;50.984;3.538;2024-03-08T06:39:26;28.20;;;15.50;;
47715;SDS011;33476;50.984;3.538;2024-03-08T06:41:52;26.95;;;15.60;;
47715;SDS011;33476;50.984;3.538;2024-03-08T06:44:17;26.50;;;15.05;;
47715;SDS011;33476;50.984;3.538;2024-03-08T06:46:42;26.65;;;14.85;;
47715;SDS011;33476;50.984;3.538;2024-03-08T06:49:08;28.17;;;15.27;;
47715;SDS011;33476;50.984;3.538;2024-03-08T06:51:35;29.73;;;15.90;;
47715;SDS011;33476;50.984;3.538;2024-03-08T06:54:01;26.15;;;14.82;;
47715;SDS011;33476;50.984;3.538;2024-03-08T06:56:26;30.85;;;15.88;;
47715;SDS011;33476;50.984;3.538;2024-03-08T06:58:52;28.75;;;15.80;;
47715;SDS011;33476;50.984;3.538;2024-03-08T07:01:17;31.10;;;15.13;;
47715;SDS011;33476;50.984;3.538;2024-03-08T07:03:42;27.20;;;14.20;;
47715;SDS011;33476;50.984;3.538;2024-03-08T07:06:10;27.50;;;15.45;;
47715;SDS011;33476;50.984;3.538;2024-03-08T07:08:39;25.17;;;11.93;;
47715;SDS011;33476;50.984;3.538;2024-03-08T07:11:04;28.20;;;15.32;;
47715;SDS011;33476;50.984;3.538;2024-03-08T07:13:30;32.03;;;14.90;;
47715;SDS011;33476;50.984;3.538;2024-03-08T07:15:55;27.55;;;15.10;;
47715;SDS011;33476;50.984;3.538;2024-03-08T07:18:21;29.75;;;15.60;;
47715;SDS011;33476;50.984;3.538;2024-03-08T07:20:47;27.10;;;15.40;;
47715;SDS011;33476;50.984;3.538;2024-03-08T07:23:12;26.92;;;15.00;;
47715;SDS011;33476;50.984;3.538;2024-03-08T07:25:57;25.00;;;14.02;;
47715;SDS011;33476;50.984;3.538;2024-03-08T07:28:23;28.13;;;15.15;;
47715;SDS011;33476;50.984;3.538;2024-03-08T07:30:48;27.10;;;13.98;;
47715;SDS011;33476;50.984;3.538;2024-03-08T07:33:14;24.08;;;13.85;;
47715;SDS011;33476;50.984;3.538;2024-03-08T07:35:39;26.23;;;14.45;;
47715;SDS011;33476;50.984;3.538;2024-03-08T07:38:08;26.15;;;13.88;;
47715;SDS011;33476;50.984;3.538;2024-03-08T07:40:37;27.70;;;14.98;;
47715;SDS011;33476;50.984;3.538;2024-03-08T07:43:09;27.50;;;14.45;;
47715;SDS011;33476;50.984;3.538;2024-03-08T07:45:36;29.02;;;15.25;;
47715;SDS011;33476;50.984;3.538;2024-03-08T07:48:02;24.90;;;14.30;;
47715;SDS011;33476;50.984;3.538;2024-03-08T07:50:28;27.25;;;14.63;;
47715;SDS011;33476;50.984;3.538;2024-03-08T07:52:53;28.15;;;14.77;;
47715;SDS011;33476;50.984;3.538;2024-03-08T07:55:19;26.42;;;14.70;;
47715;SDS011;33476;50.984;3.538;2024-03-08T07:57:45;23.83;;;13.48;;
47715;SDS011;33476;50.984;3.538;2024-03-08T08:00:12;29.55;;;14.70;;
47715;SDS011;33476;50.984;3.538;2024-03-08T08:02:42;28.23;;;14.40;;
47715;SDS011;33476;50.984;3.538;2024-03-08T08:05:10;25.20;;;14.32;;
47715;SDS011;33476;50.984;3.538;2024-03-08T08:07:36;29.45;;;14.48;;
47715;SDS011;33476;50.984;3.538;2024-03-08T08:10:01;27.05;;;14.90;;
47715;SDS011;33476;50.984;3.538;2024-03-08T08:12:27;24.60;;;14.68;;
47715;SDS011;33476;50.984;3.538;2024-03-08T08:14:54;27.00;;;14.30;;
47715;SDS011;33476;50.984;3.538;2024-03-08T08:17:19;24.35;;;13.77;;
47715;SDS011;33476;50.984;3.538;2024-03-08T08:19:45;24.55;;;14.05;;
47715;SDS011;33476;50.984;3.538;2024-03-08T08:22:11;23.63;;;13.80;;
47715;SDS011;33476;50.984;3.538;2024-03-08T08:24:36;24.30;;;14.52;;
47715;SDS011;33476;50.984;3.538;2024-03-08T08:27:02;26.35;;;14.13;;
47715;SDS011;33476;50.984;3.538;2024-03-08T08:29:28;26.85;;;14.00;;
47715;SDS011;33476;50.984;3.538;2024-03-08T08:31:53;27.23;;;14.60;;
47715;SDS011;33476;50.984;3.538;2024-03-08T08:34:19;25.08;;;13.05;;
47715;SDS011;33476;50.984;3.538;2024-03-08T08:36:44;26.13;;;14.13;;
47715;SDS011;33476;50.984;3.538;2024-03-08T08:39:10;25.85;;;14.35;;
47715;SDS011;33476;50.984;3.538;2024-03-08T08:41:38;25.50;;;13.80;;
47715;SDS011;33476;50.984;3.538;2024-03-08T08:44:06;26.85;;;13.63;;
47715;SDS011;33476;50.984;3.538;2024-03-08T08:46:35;24.45;;;13.63;;
47715;SDS011;33476;50.984;3.538;2024-03-08T08:49:01;25.40;;;13.80;;
47715;SDS011;33476;50.984;3.538;2024-03-08T08:51:27;22.40;;;12.70;;
47715;SDS011;33476;50.984;3.538;2024-03-08T08:53:52;22.48;;;13.38;;
47715;SDS011;33476;50.984;3.538;2024-03-08T08:56:18;23.95;;;13.20;;
47715;SDS011;33476;50.984;3.538;2024-03-08T08:58:43;22.95;;;13.25;;
47715;SDS011;33476;50.984;3.538;2024-03-08T09:01:09;23.33;;;12.82;;
47715;SDS011;33476;50.984;3.538;2024-03-08T09:03:35;23.02;;;12.73;;
47715;SDS011;33476;50.984;3.538;2024-03-08T09:06:05;23.35;;;13.20;;
47715;SDS011;33476;50.984;3.538;2024-03-08T09:08:35;24.05;;;12.80;;
47715;SDS011;33476;50.984;3.538;2024-03-08T09:11:03;20.92;;;12.60;;
47715;SDS011;33476;50.984;3.538;2024-03-08T09:13:29;23.67;;;12.90;;
47715;SDS011;33476;50.984;3.538;2024-03-08T09:15:54;24.10;;;12.05;;
47715;SDS011;33476;50.984;3.538;2024-03-08T09:18:20;21.70;;;12.13;;
47715;SDS011;33476;50.984;3.538;2024-03-08T09:20:45;23.48;;;13.15;;
47715;SDS011;33476;50.984;3.538;2024-03-08T09:23:12;22.65;;;12.02;;
47715;SDS011;33476;50.984;3.538;2024-03-08T09:25:37;25.70;;;12.68;;
47715;SDS011;33476;50.984;3.538;2024-03-08T09:28:02;18.85;;;11.98;;
47715;SDS011;33476;50.984;3.538;2024-03-08T09:30:28;21.88;;;11.93;;
47715;SDS011;33476;50.984;3.538;2024-03-08T09:32:53;21.00;;;12.60;;
47715;SDS011;33476;50.984;3.538;2024-03-08T09:35:19;23.48;;;12.77;;
47715;SDS011;33476;50.984;3.538;2024-03-08T09:37:44;26.15;;;12.48;;
47715;SDS011;33476;50.984;3.538;2024-03-08T09:40:12;20.73;;;11.70;;
47715;SDS011;33476;50.984;3.538;2024-03-08T09:42:40;20.83;;;12.07;;
47715;SDS011;33476;50.984;3.538;2024-03-08T09:45:08;22.63;;;11.80;;
47715;SDS011;33476;50.984;3.538;2024-03-08T09:47:44;18.90;;;11.30;;
47715;SDS011;33476;50.984;3.538;2024-03-08T09:50:10;24.60;;;11.82;;
47715;SDS011;33476;50.984;3.538;2024-03-08T09:52:40;24.38;;;12.63;;
47715;SDS011;33476;50.984;3.538;2024-03-08T09:57:36;21.38;;;11.93;;
47715;SDS011;33476;50.984;3.538;2024-03-08T10:00:03;20.27;;;11.77;;
47715;SDS011;33476;50.984;3.538;2024-03-08T10:02:46;20.90;;;11.23;;
47715;SDS011;33476;50.984;3.538;2024-03-08T10:05:12;21.08;;;11.48;;
47715;SDS011;33476;50.984;3.538;2024-03-08T10:07:39;20.98;;;11.80;;
47715;SDS011;33476;50.984;3.538;2024-03-08T10:10:04;21.75;;;10.90;;
47715;SDS011;33476;50.984;3.538;2024-03-08T10:12:30;19.98;;;11.38;;
47715;SDS011;33476;50.984;3.538;2024-03-08T10:14:58;19.30;;;11.68;;
47715;SDS011;33476;50.984;3.538;2024-03-08T10:17:23;22.08;;;11.38;;
47715;SDS011;33476;50.984;3.538;2024-03-08T10:19:49;20.98;;;11.77;;
47715;SDS011;33476;50.984;3.538;2024-03-08T10:22:16;20.20;;;11.27;;
47715;SDS011;33476;50.984;3.538;2024-03-08T10:24:42;20.40;;;11.63;;
47715;SDS011;33476;50.984;3.538;2024-03-08T10:27:10;22.48;;;11.98;;
47715;SDS011;33476;50.984;3.538;2024-03-08T10:29:36;22.48;;;11.77;;
47715;SDS011;33476;50.984;3.538;2024-03-08T10:32:02;23.77;;;11.32;;
47715;SDS011;33476;50.984;3.538;2024-03-08T10:34:30;23.95;;;11.38;;
47715;SDS011;33476;50.984;3.538;2024-03-08T10:36:56;19.45;;;11.27;;
47715;SDS011;33476;50.984;3.538;2024-03-08T10:39:28;19.73;;;11.20;;
47715;SDS011;33476;50.984;3.538;2024-03-08T10:42:01;18.88;;;10.13;;
47715;SDS011;33476;50.984;3.538;2024-03-08T10:47:01;21.13;;;11.48;;
47715;SDS011;33476;50.984;3.538;2024-03-08T10:49:37;18.77;;;10.93;;
47715;SDS011;33476;50.984;3.538;2024-03-08T10:52:04;22.92;;;11.23;;
47715;SDS011;33476;50.984;3.538;2024-03-08T10:54:37;19.30;;;10.63;;
47715;SDS011;33476;50.984;3.538;2024-03-08T10:57:05;20.05;;;10.43;;
47715;SDS011;33476;50.984;3.538;2024-03-08T10:59:31;22.85;;;11.50;;
47715;SDS011;33476;50.984;3.538;2024-03-08T11:01:58;21.17;;;11.00;;
47715;SDS011;33476;50.984;3.538;2024-03-08T11:04:24;22.13;;;10.43;;
47715;SDS011;33476;50.984;3.538;2024-03-08T11:06:50;22.67;;;11.10;;
47715;SDS011;33476;50.984;3.538;2024-03-08T11:09:28;16.45;;;9.98;;
47715;SDS011;33476;50.984;3.538;2024-03-08T11:12:20;18.95;;;10.63;;
47715;SDS011;33476;50.984;3.538;2024-03-08T11:14:50;16.98;;;10.07;;
47715;SDS011;33476;50.984;3.538;2024-03-08T11:17:26;19.30;;;10.77;;
47715;SDS011;33476;50.984;3.538;2024-03-08T11:20:04;20.10;;;11.18;;
47715;SDS011;33476;50.984;3.538;2024-03-08T11:22:40;18.33;;;10.35;;
47715;SDS011;33476;50.984;3.538;2024-03-08T11:28:18;21.85;;;10.65;;
47715;SDS011;33476;50.984;3.538;2024-03-08T11:30:46;21.38;;;10.00;;
47715;SDS011;33476;50.984;3.538;2024-03-08T11:33:24;17.98;;;10.65;;
47715;SDS011;33476;50.984;3.538;2024-03-08T11:35:54;17.85;;;9.23;;
47715;SDS011;33476;50.984;3.538;2024-03-08T11:38:28;17.65;;;9.68;;
47715;SDS011;33476;50.984;3.538;2024-03-08T11:40:56;19.08;;;9.75;;
47715;SDS011;33476;50.984;3.538;2024-03-08T11:43:22;17.25;;;10.02;;
47715;SDS011;33476;50.984;3.538;2024-03-08T11:45:47;19.17;;;10.15;;
47715;SDS011;33476;50.984;3.538;2024-03-08T11:48:13;15.48;;;8.93;;
47715;SDS011;33476;50.984;3.538;2024-03-08T11:50:39;17.35;;;9.93;;
47715;SDS011;33476;50.984;3.538;2024-03-08T11:53:05;16.98;;;9.88;;
47715;SDS011;33476;50.984;3.538;2024-03-08T11:55:31;17.38;;;9.85;;
47715;SDS011;33476;50.984;3.538;2024-03-08T11:58:03;17.10;;;9.80;;
47715;SDS011;33476;50.984;3.538;2024-03-08T12:00:29;17.77;;;9.73;;
47715;SDS011;33476;50.984;3.538;2024-03-08T12:05:29;20.05;;;10.15;;
47715;SDS011;33476;50.984;3.538;2024-03-08T12:07:56;22.42;;;10.07;;
47715;SDS011;33476;50.984;3.538;2024-03-08T12:10:23;21.10;;;10.10;;
47715;SDS011;33476;50.984;3.538;2024-03-08T12:12:51;19.15;;;9.80;;
47715;SDS011;33476;50.984;3.538;2024-03-08T12:15:18;18.33;;;9.75;;
47715;SDS011;33476;50.984;3.538;2024-03-08T12:17:45;18.30;;;9.88;;
47715;SDS011;33476;50.984;3.538;2024-03-08T12:20:31;20.30;;;9.52;;
47715;SDS011;33476;50.984;3.538;2024-03-08T12:22:56;17.70;;;9.60;;
47715;SDS011;33476;50.984;3.538;2024-03-08T12:25:41;15.73;;;8.73;;
47715;SDS011;33476;50.984;3.538;2024-03-08T12:28:09;18.70;;;10.23;;
47715;SDS011;33476;50.984;3.538;2024-03-08T12:30:47;17.20;;;9.27;;
47715;SDS011;33476;50.984;3.538;2024-03-08T12:33:13;16.27;;;9.55;;
47715;SDS011;33476;50.984;3.538;2024-03-08T12:35:39;14.73;;;9.13;;
47715;SDS011;33476;50.984;3.538;2024-03-08T12:38:05;16.38;;;9.32;;
47715;SDS011;33476;50.984;3.538;2024-03-08T12:40:33;18.88;;;10.07;;
47715;SDS011;33476;50.984;3.538;2024-03-08T12:43:05;14.60;;;9.23;;
47715;SDS011;33476;50.984;3.538;2024-03-08T12:45:31;18.08;;;9.38;;
47715;SDS011;33476;50.984;3.538;2024-03-08T12:47:57;23.20;;;10.13;;
47715;SDS011;33476;50.984;3.538;2024-03-08T12:50:24;16.88;;;9.02;;
47715;SDS011;33476;50.984;3.538;2024-03-08T12:52:50;16.20;;;9.82;;
47715;SDS011;33476;50.984;3.538;2024-03-08T12:55:17;17.02;;;9.30;;
47715;SDS011;33476;50.984;3.538;2024-03-08T12:57:43;14.32;;;8.90;;
47715;SDS011;33476;50.984;3.538;2024-03-08T13:00:09;17.35;;;8.60;;
47715;SDS011;33476;50.984;3.538;2024-03-08T13:02:44;16.63;;;8.80;;
47715;SDS011;33476;50.984;3.538;2024-03-08T13:05:10;17.25;;;9.50;;
47715;SDS011;33476;50.984;3.538;2024-03-08T13:07:36;17.65;;;9.77;;
47715;SDS011;33476;50.984;3.538;2024-03-08T13:10:03;16.80;;;9.85;;
47715;SDS011;33476;50.984;3.538;2024-03-08T13:12:29;15.25;;;8.57;;
47715;SDS011;33476;50.984;3.538;2024-03-08T13:14:55;16.75;;;9.00;;
47715;SDS011;33476;50.984;3.538;2024-03-08T13:17:21;18.08;;;9.15;;
47715;SDS011;33476;50.984;3.538;2024-03-08T13:19:47;15.43;;;9.30;;
47715;SDS011;33476;50.984;3.538;2024-03-08T13:22:12;17.08;;;9.20;;
47715;SDS011;33476;50.984;3.538;2024-03-08T13:24:41;15.43;;;8.52;;
47715;SDS011;33476;50.984;3.538;2024-03-08T13:27:08;15.55;;;8.65;;
47715;SDS011;33476;50.984;3.538;2024-03-08T13:29:44;18.98;;;8.43;;
47715;SDS011;33476;50.984;3.538;2024-03-08T13:32:11;15.52;;;8.63;;
47715;SDS011;33476;50.984;3.538;2024-03-08T13:34:37;19.08;;;8.88;;
47715;SDS011;33476;50.984;3.538;2024-03-08T13:37:05;16.05;;;9.35;;
47715;SDS011;33476;50.984;3.538;2024-03-08T13:39:31;14.68;;;8.77;;
47715;SDS011;33476;50.984;3.538;2024-03-08T13:42:06;16.38;;;8.38;;
47715;SDS011;33476;50.984;3.538;2024-03-08T13:44:37;16.33;;;8.38;;
47715;SDS011;33476;50.984;3.538;2024-03-08T13:47:03;15.30;;;8.75;;
47715;SDS011;33476;50.984;3.538;2024-03-08T13:49:29;15.07;;;9.13;;
47715;SDS011;33476;50.984;3.538;2024-03-08T13:51:55;15.18;;;8.68;;
47715;SDS011;33476;50.984;3.538;2024-03-08T13:54:22;16.80;;;8.80;;
47715;SDS011;33476;50.984;3.538;2024-03-08T13:56:47;19.65;;;8.85;;
47715;SDS011;33476;50.984;3.538;2024-03-08T13:59:14;14.48;;;8.43;;
47715;SDS011;33476;50.984;3.538;2024-03-08T14:01:40;15.13;;;8.38;;
47715;SDS011;33476;50.984;3.538;2024-03-08T14:04:05;15.10;;;8.77;;
47715;SDS011;33476;50.984;3.538;2024-03-08T14:06:30;13.18;;;8.32;;
47715;SDS011;33476;50.984;3.538;2024-03-08T14:08:56;15.27;;;8.75;;
47715;SDS011;33476;50.984;3.538;2024-03-08T14:11:22;15.93;;;8.80;;
47715;SDS011;33476;50.984;3.538;2024-03-08T14:13:49;16.77;;;9.02;;
47715;SDS011;33476;50.984;3.538;2024-03-08T14:16:14;15.15;;;8.00;;
47715;SDS011;33476;50.984;3.538;2024-03-08T14:18:40;16.67;;;8.73;;
47715;SDS011;33476;50.984;3.538;2024-03-08T14:21:06;18.25;;;8.60;;
47715;SDS011;33476;50.984;3.538;2024-03-08T14:23:33;14.57;;;8.43;;
47715;SDS011;33476;50.984;3.538;2024-03-08T14:25:59;14.00;;;8.52;;
47715;SDS011;33476;50.984;3.538;2024-03-08T14:28:25;15.57;;;8.40;;
47715;SDS011;33476;50.984;3.538;2024-03-08T14:30:52;14.52;;;7.85;;
47715;SDS011;33476;50.984;3.538;2024-03-08T14:33:18;15.25;;;8.25;;